createdAt,value
2022-09-05T00:01:47.375Z,100.00
2022-09-05T00:04:24.588Z,100.00
2022-09-05T00:07:01.137Z,100.00
2022-09-05T00:09:56.089Z,100.00
2022-09-05T00:12:25.200Z,100.00
2022-09-05T00:15:16.311Z,100.00
2022-09-05T00:19:30.496Z,100.00
2022-09-05T00:24:18.845Z,100.00
2022-09-05T00:24:34.274Z,100.00
2022-09-05T00:26:56.363Z,100.00
2022-09-05T00:30:11.437Z,100.00
2022-09-05T00:32:43.810Z,100.00
2022-09-05T00:35:27.787Z,100.00
2022-09-05T00:37:56.375Z,100.00
2022-09-05T00:40:31.324Z,100.00
2022-09-05T00:43:05.313Z,100.00
2022-09-05T00:45:38.381Z,100.00
2022-09-05T00:48:17.995Z,100.00
2022-09-05T00:50:59.157Z,100.00
2022-09-05T00:53:35.859Z,100.00
2022-09-05T00:56:17.802Z,100.00
2022-09-05T00:59:31.174Z,100.00
2022-09-05T01:02:01.499Z,100.00
2022-09-05T01:04:36.121Z,100.00
2022-09-05T01:07:12.401Z,100.00
2022-09-05T01:09:45.084Z,100.00
2022-09-05T01:12:19.556Z,100.00
2022-09-05T01:14:55.275Z,100.00
2022-09-05T01:17:36.434Z,100.00
2022-09-05T01:20:29.743Z,100.00
2022-09-05T01:23:27.084Z,100.00
2022-09-05T01:26:22.283Z,100.00
2022-09-05T01:29:17.165Z,100.00
2022-09-05T01:32:06.531Z,100.00
2022-09-05T01:34:47.019Z,100.00
2022-09-05T01:37:32.765Z,100.00
2022-09-05T01:40:16.831Z,100.00
2022-09-05T01:43:00.609Z,100.00
2022-09-05T01:45:42.154Z,100.00
2022-09-05T01:48:22.277Z,100.00
2022-09-05T01:50:57.947Z,100.00
2022-09-05T01:53:38.601Z,100.00
2022-09-05T01:56:30.738Z,100.00
2022-09-05T01:59:28.188Z,100.00
2022-09-05T02:02:14.188Z,100.00
2022-09-05T02:05:11.624Z,100.00
2022-09-05T02:08:00.866Z,100.00
2022-09-05T02:10:40.256Z,100.00
2022-09-05T02:13:19.307Z,100.00
2022-09-05T02:15:59.274Z,100.00
2022-09-05T02:18:40.855Z,100.00
2022-09-05T02:21:19.407Z,100.00
2022-09-05T02:23:53.822Z,100.00
2022-09-05T02:26:27.213Z,100.00
2022-09-05T02:29:01.460Z,100.00
2022-09-05T02:31:42.066Z,100.00
2022-09-05T02:34:14.687Z,100.00
2022-09-05T02:36:46.522Z,100.00
2022-09-05T02:45:00.323Z,100.00
2022-09-05T02:45:17.868Z,100.00
2022-09-05T02:45:26.881Z,100.00
2022-09-05T02:48:09.655Z,100.00
2022-09-05T02:54:38.634Z,100.00
2022-09-05T02:57:26.093Z,100.00
2022-09-05T02:57:44.920Z,100.00
2022-09-05T02:59:47.266Z,100.00
2022-09-05T03:02:25.959Z,100.00
2022-09-05T03:05:04.502Z,100.00
2022-09-05T03:07:59.201Z,100.00
2022-09-05T03:11:04.778Z,100.00
2022-09-05T03:13:54.383Z,100.00
2022-09-05T03:17:14.922Z,100.00
2022-09-05T03:20:08.315Z,100.00
2022-09-05T03:23:15.858Z,100.00
2022-09-05T03:26:32.373Z,100.00
2022-09-05T03:29:35.754Z,100.00
2022-09-05T03:32:27.758Z,100.00
2022-09-05T03:35:20.686Z,100.00
2022-09-05T03:38:25.170Z,100.00
2022-09-05T03:41:11.400Z,100.00
2022-09-05T03:44:20.983Z,100.00
2022-09-05T03:47:14.244Z,100.00
2022-09-05T03:53:31.041Z,100.00
2022-09-05T03:57:06.709Z,100.00
2022-09-05T03:57:10.413Z,100.00
2022-09-05T03:59:38.949Z,100.00
2022-09-05T04:06:10.325Z,100.00
2022-09-05T04:08:18.263Z,100.00
2022-09-05T04:08:19.116Z,100.00
2022-09-05T04:10:56.554Z,100.00
2022-09-05T04:13:29.989Z,100.00
2022-09-05T04:16:07.818Z,100.00
2022-09-05T04:18:39.476Z,100.00
2022-09-05T04:21:14.198Z,100.00
2022-09-05T04:24:00.010Z,100.00
2022-09-05T04:26:49.671Z,100.00
2022-09-05T04:29:27.354Z,100.00
2022-09-05T04:32:17.667Z,100.00
2022-09-05T04:35:00.059Z,100.00
2022-09-05T04:37:55.066Z,100.00
2022-09-05T04:40:44.530Z,100.00
2022-09-05T04:43:22.151Z,100.00
2022-09-05T04:45:54.502Z,100.00
2022-09-05T04:48:27.979Z,100.00
2022-09-05T04:51:11.708Z,100.00
2022-09-05T04:54:08.513Z,100.00
2022-09-05T04:56:42.765Z,100.00
2022-09-05T05:01:00.328Z,100.00
2022-09-05T05:06:08.548Z,100.00
2022-09-05T05:06:14.485Z,100.00
2022-09-05T05:08:02.147Z,100.00
2022-09-05T05:10:55.407Z,100.00
2022-09-05T05:18:03.637Z,100.00
2022-09-05T05:18:08.141Z,100.00
2022-09-05T05:19:21.593Z,100.00
2022-09-05T05:21:54.423Z,100.00
2022-09-05T05:24:26.325Z,100.00
2022-09-05T05:27:00.915Z,100.00
2022-09-05T05:29:39.675Z,100.00
2022-09-05T05:32:08.041Z,100.00
2022-09-05T05:34:44.117Z,100.00
2022-09-05T05:37:20.318Z,100.00
2022-09-05T05:39:59.147Z,100.00
2022-09-05T05:42:26.989Z,100.00
2022-09-05T05:44:58.091Z,100.00
2022-09-05T05:47:31.595Z,100.00
2022-09-05T05:50:11.614Z,100.00
2022-09-05T05:52:58.834Z,100.00
2022-09-05T05:55:51.236Z,100.00
2022-09-05T05:58:52.529Z,100.00
2022-09-05T06:01:55.582Z,100.00
2022-09-05T06:05:03.191Z,100.00
2022-09-05T06:09:33.776Z,100.00
2022-09-05T06:14:57.250Z,100.00
2022-09-05T06:15:00.158Z,100.00
2022-09-05T06:17:58.628Z,100.00
2022-09-05T06:22:11.423Z,100.00
2022-09-05T06:24:27.820Z,100.00
2022-09-05T06:27:19.914Z,100.00
2022-09-05T06:29:59.198Z,100.00
2022-09-05T06:32:58.796Z,100.00
2022-09-05T06:35:39.690Z,100.00
2022-09-05T06:38:28.242Z,100.00
2022-09-05T06:41:20.472Z,100.00
2022-09-05T06:44:23.991Z,100.00
2022-09-05T06:47:23.840Z,100.00
2022-09-05T06:50:23.751Z,100.00
2022-09-05T06:53:34.092Z,100.00
2022-09-05T06:56:32.018Z,100.00
2022-09-05T06:59:35.886Z,100.00
2022-09-05T07:02:11.968Z,100.00
2022-09-05T07:05:37.354Z,100.00
2022-09-05T07:07:42.444Z,100.00
2022-09-05T07:10:37.894Z,100.00
2022-09-05T07:13:16.050Z,100.00
2022-09-05T07:15:54.329Z,100.00
2022-09-05T07:18:31.660Z,98.48
2022-09-05T07:21:17.104Z,94.60
2022-09-05T07:24:06.424Z,88.54
2022-09-05T07:26:53.657Z,87.93
2022-09-05T07:29:27.849Z,86.82
2022-09-05T07:31:57.212Z,83.35
2022-09-05T07:34:29.481Z,76.06
2022-09-05T07:37:14.615Z,72.08
2022-09-05T07:39:45.340Z,66.85
2022-09-05T07:42:16.037Z,63.46
2022-09-05T07:44:48.851Z,62.77
2022-09-05T07:47:21.191Z,62.87
2022-09-05T07:50:07.773Z,59.52
2022-09-05T07:57:00.801Z,55.76
2022-09-05T07:57:10.789Z,58.41
2022-09-05T07:58:19.747Z,53.78
2022-09-05T08:00:51.968Z,54.21
2022-09-05T08:03:24.260Z,50.72
2022-09-05T08:05:53.982Z,49.43
2022-09-05T08:08:23.460Z,49.02
2022-09-05T08:11:22.232Z,48.92
2022-09-05T08:13:51.720Z,51.56
2022-09-05T08:16:22.497Z,50.85
2022-09-05T08:18:51.248Z,50.17
2022-09-05T08:21:27.605Z,50.26
2022-09-05T08:23:59.590Z,50.31
2022-09-05T08:26:32.390Z,50.46
2022-09-05T08:29:02.882Z,49.35
2022-09-05T08:31:35.719Z,49.16
2022-09-05T08:34:11.754Z,48.42
2022-09-05T08:36:41.574Z,47.67
2022-09-05T08:39:10.314Z,47.12
2022-09-05T08:41:50.413Z,46.16
2022-09-05T08:46:37.819Z,46.16
2022-09-05T08:47:26.013Z,47.04
2022-09-05T08:50:05.002Z,46.24
2022-09-05T08:52:37.793Z,44.84
2022-09-05T08:55:12.303Z,43.52
2022-09-05T08:57:56.771Z,43.41
2022-09-05T09:00:27.611Z,42.71
2022-09-05T09:03:09.079Z,41.78
2022-09-05T09:06:13.523Z,42.58
2022-09-05T09:08:50.737Z,46.30
2022-09-05T09:11:26.446Z,46.11
2022-09-05T09:13:55.453Z,44.34
2022-09-05T09:16:30.532Z,42.51
2022-09-05T09:19:09.250Z,42.29
2022-09-05T09:21:40.631Z,42.24
2022-09-05T09:24:14.135Z,43.41
2022-09-05T09:26:43.465Z,42.74
2022-09-05T09:29:13.178Z,43.11
2022-09-05T09:31:46.434Z,43.49
2022-09-05T09:34:39.634Z,42.20
2022-09-05T09:37:35.578Z,44.41
2022-09-05T09:40:36.717Z,43.38
2022-09-05T09:43:07.223Z,43.17
2022-09-05T09:45:53.129Z,43.26
2022-09-05T09:48:37.157Z,43.24
2022-09-05T09:51:12.298Z,42.26
2022-09-05T09:53:54.651Z,39.21
2022-09-05T09:56:52.314Z,38.53
2022-09-05T09:59:57.445Z,38.49
2022-09-05T10:05:28.850Z,39.64
2022-09-05T10:11:09.180Z,39.08
2022-09-05T10:11:17.920Z,39.16
2022-09-05T10:13:08.042Z,39.48
2022-09-05T10:15:41.865Z,39.43
2022-09-05T10:18:44.557Z,39.70
2022-09-05T10:21:47.187Z,40.61
2022-09-05T10:24:52.469Z,42.21
2022-09-05T10:27:30.823Z,41.20
2022-09-05T10:30:08.729Z,39.82
2022-09-05T10:35:04.574Z,38.41
2022-09-05T10:35:37.298Z,39.04
2022-09-05T10:38:11.473Z,40.35
2022-09-05T10:40:51.440Z,38.59
2022-09-05T10:43:38.781Z,38.28
2022-09-05T10:46:39.815Z,39.31
2022-09-05T10:49:09.182Z,37.49
2022-09-05T10:51:42.432Z,37.01
2022-09-05T10:54:23.849Z,37.89
2022-09-05T10:57:01.784Z,38.58
2022-09-05T11:02:16.413Z,38.90
2022-09-05T11:02:34.642Z,38.41
2022-09-05T11:05:07.194Z,38.83
2022-09-05T11:07:39.299Z,38.13
2022-09-05T11:10:11.717Z,37.51
2022-09-05T11:12:50.489Z,36.28
2022-09-05T11:15:30.793Z,36.35
2022-09-05T11:18:01.846Z,36.31
2022-09-05T11:20:41.345Z,35.97
2022-09-05T11:23:11.956Z,35.85
2022-09-05T11:25:41.259Z,36.46
2022-09-05T11:28:14.614Z,36.87
2022-09-05T11:30:44.769Z,36.21
2022-09-05T11:37:54.649Z,37.16
2022-09-05T11:39:57.302Z,35.64
2022-09-05T11:40:02.803Z,36.44
2022-09-05T11:42:16.880Z,35.38
2022-09-05T11:44:54.919Z,36.33
2022-09-05T11:47:44.343Z,36.19
2022-09-05T11:50:34.626Z,36.42
2022-09-05T11:53:28.102Z,35.67
2022-09-05T11:56:03.398Z,35.17
2022-09-05T11:58:50.571Z,34.45
2022-09-05T12:04:31.531Z,34.80
2022-09-05T12:07:24.099Z,36.01
2022-09-05T12:10:04.807Z,36.05
2022-09-05T12:12:39.256Z,36.49
2022-09-05T12:15:24.602Z,37.29
2022-09-05T12:18:00.567Z,38.06
2022-09-05T12:20:32.719Z,38.23
2022-09-05T12:23:24.893Z,36.86
2022-09-05T12:27:41.321Z,36.32
2022-09-05T12:29:27.935Z,37.05
2022-09-05T12:32:37.709Z,36.80
2022-09-05T12:36:04.558Z,37.08
2022-09-05T12:40:54.354Z,36.83
2022-09-05T12:41:36.240Z,35.44
2022-09-05T12:41:45.178Z,33.38
2022-09-05T12:44:38.485Z,35.71
2022-09-05T12:46:18.494Z,35.35
2022-09-05T12:48:55.700Z,36.55
2022-09-05T12:51:46.120Z,37.06
2022-09-05T12:54:32.717Z,36.64
2022-09-05T13:01:27.114Z,35.93
2022-09-05T13:02:56.425Z,35.89
2022-09-05T13:03:11.034Z,36.20
2022-09-05T13:05:43.404Z,35.60
2022-09-05T13:08:20.922Z,35.72
2022-09-05T13:14:48.530Z,34.27
2022-09-05T13:14:54.648Z,33.96
2022-09-05T13:16:32.809Z,35.00
2022-09-05T13:19:07.403Z,35.84
2022-09-05T13:21:37.057Z,34.94
2022-09-05T13:24:09.968Z,35.05
2022-09-05T13:26:40.098Z,33.91
2022-09-05T13:29:13.048Z,33.27
2022-09-05T13:38:01.424Z,33.42
2022-09-05T13:38:14.431Z,32.35
2022-09-05T13:38:15.897Z,31.91
2022-09-05T13:40:28.017Z,32.61
2022-09-05T13:42:59.810Z,33.61
2022-09-05T13:45:29.435Z,34.12
2022-09-05T13:47:59.353Z,33.49
2022-09-05T13:50:28.213Z,33.32
2022-09-05T13:53:04.824Z,33.66
2022-09-05T13:55:39.848Z,31.86
2022-09-05T13:58:10.769Z,30.63
2022-09-05T14:01:01.104Z,30.19
2022-09-05T14:03:53.551Z,31.15
2022-09-05T14:06:47.068Z,30.38
2022-09-05T14:09:40.992Z,30.60
2022-09-05T14:12:13.356Z,30.63
2022-09-05T14:17:54.177Z,30.94
2022-09-05T14:20:43.037Z,30.72
2022-09-05T14:23:13.391Z,30.23
2022-09-05T14:25:44.171Z,30.83
2022-09-05T14:28:18.815Z,31.34
2022-09-05T14:35:49.965Z,30.56
2022-09-05T14:37:41.494Z,30.84
2022-09-05T14:37:58.492Z,30.22
2022-09-05T14:40:30.651Z,30.32
2022-09-05T14:43:24.464Z,30.92
2022-09-05T14:46:28.349Z,31.03
2022-09-05T14:49:29.008Z,30.78
2022-09-05T14:51:58.270Z,30.95
2022-09-05T15:01:37.468Z,31.69
2022-09-05T15:02:44.080Z,31.72
2022-09-05T15:03:05.368Z,31.64
2022-09-05T15:05:41.656Z,30.76
2022-09-05T15:08:33.244Z,31.80
2022-09-05T15:12:15.016Z,31.40
2022-09-05T15:13:57.330Z,31.44
2022-09-05T15:16:26.835Z,31.26
2022-09-05T15:18:56.197Z,31.37
2022-09-05T15:21:34.030Z,31.46
2022-09-05T15:24:14.687Z,32.11
2022-09-05T15:26:51.233Z,32.20
2022-09-05T15:29:24.521Z,31.74
2022-09-05T15:32:09.509Z,31.62
2022-09-05T15:34:38.984Z,32.29
2022-09-05T15:37:22.984Z,31.55
2022-09-05T15:40:02.367Z,32.83
2022-09-05T15:42:32.667Z,34.10
2022-09-05T15:45:11.123Z,34.10
2022-09-05T15:47:47.472Z,34.12
2022-09-05T15:50:22.622Z,33.80
2022-09-05T15:52:55.324Z,34.21
2022-09-05T15:55:25.919Z,33.45
2022-09-05T15:57:56.261Z,33.83
2022-09-05T16:00:52.065Z,33.97
2022-09-05T16:05:46.352Z,33.74
2022-09-05T16:10:36.716Z,34.00
2022-09-05T16:10:43.466Z,33.64
2022-09-05T16:12:18.330Z,33.61
2022-09-05T16:15:01.764Z,34.18
2022-09-05T16:23:17.035Z,34.20
2022-09-05T16:23:37.777Z,34.30
2022-09-05T16:23:41.476Z,34.92
2022-09-05T16:26:14.157Z,34.69
2022-09-05T16:28:50.243Z,35.23
2022-09-05T16:31:24.932Z,35.48
2022-09-05T16:33:55.506Z,34.50
2022-09-05T16:36:30.178Z,35.15
2022-09-05T16:39:02.172Z,36.09
2022-09-05T16:41:40.271Z,35.44
2022-09-05T16:44:15.186Z,35.33
2022-09-05T16:46:48.736Z,35.52
2022-09-05T16:49:36.031Z,35.66
2022-09-05T16:52:17.066Z,35.78
2022-09-05T16:54:49.928Z,35.60
2022-09-05T16:57:21.985Z,35.72
2022-09-05T16:59:51.196Z,35.78
2022-09-05T17:02:28.434Z,35.75
2022-09-05T17:05:11.001Z,35.85
2022-09-05T17:08:02.186Z,36.51
2022-09-05T17:10:34.815Z,36.03
2022-09-05T17:13:05.233Z,36.24
2022-09-05T17:15:36.689Z,37.08
2022-09-05T17:18:21.813Z,38.15
2022-09-05T17:20:56.727Z,37.66
2022-09-05T17:29:18.643Z,38.44
2022-09-05T17:29:24.830Z,39.19
2022-09-05T17:32:33.561Z,41.78
2022-09-05T17:35:17.601Z,42.73
2022-09-05T17:38:12.078Z,43.33
2022-09-05T17:40:57.196Z,44.48
2022-09-05T17:43:29.154Z,46.00
2022-09-05T17:46:12.397Z,46.78
2022-09-05T17:49:19.420Z,47.20
2022-09-05T17:52:17.396Z,47.90
2022-09-05T17:54:49.941Z,49.44
2022-09-05T17:57:41.345Z,51.42
2022-09-05T18:00:49.337Z,53.73
2022-09-05T18:04:16.761Z,56.11
2022-09-05T18:06:59.432Z,57.72
2022-09-05T18:13:13.897Z,61.33
2022-09-05T18:19:32.546Z,64.80
2022-09-05T18:21:54.087Z,66.53
2022-09-05T18:24:33.648Z,67.38
2022-09-05T18:27:43.831Z,69.38
2022-09-05T18:30:07.139Z,70.64
2022-09-05T18:32:53.377Z,72.01
2022-09-05T18:35:37.677Z,73.22
2022-09-05T18:38:50.269Z,73.98
2022-09-05T18:41:18.276Z,74.52
2022-09-05T18:44:14.120Z,74.98
2022-09-05T18:46:47.446Z,76.02
2022-09-05T18:50:22.346Z,77.47
2022-09-05T18:52:16.485Z,79.13
2022-09-05T18:55:57.864Z,80.77
2022-09-05T18:57:48.127Z,82.46
2022-09-05T19:00:24.776Z,83.73
2022-09-05T19:03:14.111Z,85.50
2022-09-05T19:05:47.484Z,85.53
2022-09-05T19:08:28.955Z,85.94
2022-09-05T19:11:09.178Z,85.94
2022-09-05T19:14:18.267Z,86.75
2022-09-05T19:16:48.426Z,86.67
2022-09-05T19:19:24.485Z,87.65
2022-09-05T19:21:57.178Z,88.56
2022-09-05T19:24:45.716Z,89.78
2022-09-05T19:28:49.982Z,89.72
2022-09-05T19:36:45.353Z,90.90
2022-09-05T19:37:07.200Z,91.62
2022-09-05T19:37:15.103Z,92.52
2022-09-05T19:39:40.562Z,94.29
2022-09-05T19:47:25.997Z,94.49
2022-09-05T19:47:40.425Z,93.92
2022-09-05T19:47:46.418Z,94.88
2022-09-05T19:50:11.284Z,95.48
2022-09-05T19:52:40.983Z,94.79
2022-09-05T19:55:21.796Z,94.78
2022-09-05T19:58:19.563Z,95.72
2022-09-05T20:00:47.431Z,96.17
2022-09-05T20:03:38.197Z,97.06
2022-09-05T20:06:30.291Z,97.61
2022-09-05T20:09:19.955Z,97.59
2022-09-05T20:11:50.006Z,98.60
2022-09-05T20:14:20.713Z,99.29
2022-09-05T20:16:50.124Z,99.42
2022-09-05T20:19:28.910Z,99.73
2022-09-05T20:22:10.242Z,99.06
2022-09-05T20:24:51.766Z,99.31
2022-09-05T20:27:27.006Z,99.36
2022-09-05T20:29:57.505Z,98.96
2022-09-05T20:32:38.916Z,100.00
2022-09-05T20:37:34.509Z,100.00
2022-09-05T20:43:18.922Z,100.00
2022-09-05T20:43:19.856Z,100.00
2022-09-05T20:43:52.253Z,100.00
2022-09-05T20:51:37.916Z,100.00
2022-09-05T20:54:04.547Z,100.00
2022-09-05T20:54:21.960Z,100.00
2022-09-05T20:55:38.981Z,100.00
2022-09-05T20:57:50.005Z,100.00
2022-09-05T21:00:22.623Z,100.00
2022-09-05T21:02:54.568Z,100.00
2022-09-05T21:05:30.103Z,100.00
2022-09-05T21:08:24.684Z,100.00
2022-09-05T21:10:55.014Z,100.00
2022-09-05T21:13:28.461Z,100.00
2022-09-05T21:15:57.239Z,100.00
2022-09-05T21:18:33.292Z,100.00
2022-09-05T21:21:27.798Z,100.00
2022-09-05T21:24:17.478Z,100.00
2022-09-05T21:26:47.911Z,100.00
2022-09-05T21:29:26.474Z,100.00
2022-09-05T21:32:00.393Z,100.00
2022-09-05T21:34:31.639Z,100.00
2022-09-05T21:37:06.808Z,100.00
2022-09-05T21:39:40.010Z,100.00
2022-09-05T21:42:35.628Z,100.00
2022-09-05T21:47:34.547Z,100.00
2022-09-05T21:47:53.079Z,100.00
2022-09-05T21:50:31.021Z,100.00
2022-09-05T21:55:40.410Z,100.00
2022-09-05T21:59:20.937Z,100.00
2022-09-05T21:59:21.454Z,100.00
2022-09-05T22:01:46.275Z,100.00
2022-09-05T22:04:19.122Z,100.00
2022-09-05T22:06:48.249Z,100.00
2022-09-05T22:09:17.027Z,100.00
2022-09-05T22:11:50.137Z,100.00
2022-09-05T22:14:18.520Z,100.00
2022-09-05T22:16:50.262Z,100.00
2022-09-05T22:19:22.386Z,100.00
2022-09-05T22:21:52.306Z,100.00
2022-09-05T22:24:20.262Z,100.00
2022-09-05T22:27:10.859Z,100.00
2022-09-05T22:29:40.818Z,100.00
2022-09-05T22:32:10.015Z,100.00
2022-09-05T22:34:37.692Z,100.00
2022-09-05T22:37:05.525Z,100.00
2022-09-05T22:39:37.384Z,100.00
2022-09-05T22:42:09.947Z,100.00
2022-09-05T22:44:38.160Z,100.00
2022-09-05T22:47:06.199Z,100.00
2022-09-05T22:49:36.263Z,100.00
2022-09-05T22:52:04.424Z,100.00
2022-09-05T22:54:31.896Z,100.00
2022-09-05T22:56:59.359Z,100.00
2022-09-05T22:59:26.839Z,100.00
2022-09-05T23:01:54.510Z,100.00
2022-09-05T23:04:22.177Z,100.00
2022-09-05T23:06:51.019Z,100.00
2022-09-05T23:09:18.512Z,100.00
2022-09-05T23:11:46.470Z,100.00
2022-09-05T23:14:13.926Z,100.00
2022-09-05T23:16:41.393Z,100.00
2022-09-05T23:19:08.857Z,100.00
2022-09-05T23:21:36.343Z,100.00
2022-09-05T23:24:05.502Z,100.00
2022-09-05T23:26:32.971Z,100.00
2022-09-05T23:29:00.453Z,100.00
2022-09-05T23:31:27.973Z,100.00
2022-09-05T23:33:57.945Z,100.00
2022-09-05T23:36:25.462Z,100.00
2022-09-05T23:38:52.925Z,100.00
2022-09-05T23:41:21.795Z,100.00
2022-09-05T23:43:49.316Z,100.00
2022-09-05T23:46:16.943Z,100.00
2022-09-05T23:48:44.557Z,100.00
2022-09-05T23:51:13.187Z,100.00
2022-09-05T23:53:40.958Z,100.00
2022-09-05T23:56:09.227Z,100.00
2022-09-05T23:58:38.548Z,100.00
